sensor_id;sensor_type;location;lat;lon;timestamp;P1;durP1;ratioP1;P2;durP2;ratioP2
22939;SDS011;11636;52.086;5.090;2023-06-14T00:02:24;5.47;;;2.92;;
22939;SDS011;11636;52.086;5.090;2023-06-14T00:05:10;4.20;;;2.50;;
22939;SDS011;11636;52.086;5.090;2023-06-14T00:08:04;5.35;;;2.90;;
22939;SDS011;11636;52.086;5.090;2023-06-14T00:10:51;4.47;;;2.67;;
22939;SDS011;11636;52.086;5.090;2023-06-14T00:13:43;3.95;;;2.63;;
22939;SDS011;11636;52.086;5.090;2023-06-14T00:16:36;5.18;;;2.58;;
22939;SDS011;11636;52.086;5.090;2023-06-14T00:19:24;5.88;;;2.72;;
22939;SDS011;11636;52.086;5.090;2023-06-14T00:22:16;4.55;;;2.53;;
22939;SDS011;11636;52.086;5.090;2023-06-14T00:25:02;4.70;;;2.75;;
22939;SDS011;11636;52.086;5.090;2023-06-14T00:28:11;4.95;;;2.72;;
22939;SDS011;11636;52.086;5.090;2023-06-14T00:31:03;4.47;;;2.90;;
22939;SDS011;11636;52.086;5.090;2023-06-14T00:33:48;5.57;;;2.67;;
22939;SDS011;11636;52.086;5.090;2023-06-14T00:36:40;6.57;;;2.95;;
22939;SDS011;11636;52.086;5.090;2023-06-14T00:39:33;4.28;;;2.78;;
22939;SDS011;11636;52.086;5.090;2023-06-14T00:42:23;5.88;;;2.95;;
22939;SDS011;11636;52.086;5.090;2023-06-14T00:45:18;4.10;;;2.55;;
22939;SDS011;11636;52.086;5.090;2023-06-14T00:48:10;5.25;;;2.80;;
22939;SDS011;11636;52.086;5.090;2023-06-14T00:50:57;4.03;;;2.50;;
22939;SDS011;11636;52.086;5.090;2023-06-14T00:53:52;5.68;;;2.75;;
22939;SDS011;11636;52.086;5.090;2023-06-14T00:56:38;4.13;;;2.60;;
22939;SDS011;11636;52.086;5.090;2023-06-14T00:59:31;5.13;;;2.53;;
22939;SDS011;11636;52.086;5.090;2023-06-14T01:02:17;4.25;;;2.53;;
22939;SDS011;11636;52.086;5.090;2023-06-14T01:05:10;6.15;;;2.47;;
22939;SDS011;11636;52.086;5.090;2023-06-14T01:11:12;4.78;;;2.72;;
22939;SDS011;11636;52.086;5.090;2023-06-14T01:14:12;4.60;;;2.90;;
22939;SDS011;11636;52.086;5.090;2023-06-14T01:17:05;6.32;;;2.92;;
22939;SDS011;11636;52.086;5.090;2023-06-14T01:20:03;4.75;;;2.63;;
22939;SDS011;11636;52.086;5.090;2023-06-14T01:23:00;5.55;;;2.88;;
22939;SDS011;11636;52.086;5.090;2023-06-14T01:25:47;5.35;;;2.80;;
22939;SDS011;11636;52.086;5.090;2023-06-14T01:28:44;5.32;;;2.70;;
22939;SDS011;11636;52.086;5.090;2023-06-14T01:31:40;4.82;;;2.75;;
22939;SDS011;11636;52.086;5.090;2023-06-14T01:34:32;4.82;;;2.40;;
22939;SDS011;11636;52.086;5.090;2023-06-14T01:37:18;5.55;;;2.60;;
22939;SDS011;11636;52.086;5.090;2023-06-14T01:40:11;4.68;;;2.67;;
22939;SDS011;11636;52.086;5.090;2023-06-14T01:42:59;5.72;;;2.67;;
22939;SDS011;11636;52.086;5.090;2023-06-14T01:45:52;5.13;;;2.20;;
22939;SDS011;11636;52.086;5.090;2023-06-14T01:48:46;4.45;;;2.47;;
22939;SDS011;11636;52.086;5.090;2023-06-14T01:51:37;4.60;;;2.57;;
22939;SDS011;11636;52.086;5.090;2023-06-14T01:54:29;4.70;;;2.47;;
22939;SDS011;11636;52.086;5.090;2023-06-14T01:57:16;6.05;;;2.55;;
22939;SDS011;11636;52.086;5.090;2023-06-14T02:00:08;5.27;;;2.80;;
22939;SDS011;11636;52.086;5.090;2023-06-14T02:03:03;5.95;;;2.70;;
22939;SDS011;11636;52.086;5.090;2023-06-14T02:05:49;6.63;;;2.63;;
22939;SDS011;11636;52.086;5.090;2023-06-14T02:08:41;4.47;;;2.75;;
22939;SDS011;11636;52.086;5.090;2023-06-14T02:11:27;4.05;;;2.58;;
22939;SDS011;11636;52.086;5.090;2023-06-14T02:14:18;4.75;;;2.53;;
22939;SDS011;11636;52.086;5.090;2023-06-14T02:17:05;3.85;;;2.30;;
22939;SDS011;11636;52.086;5.090;2023-06-14T02:19:58;5.72;;;2.47;;
22939;SDS011;11636;52.086;5.090;2023-06-14T02:22:44;4.45;;;2.78;;
22939;SDS011;11636;52.086;5.090;2023-06-14T02:25:36;3.97;;;2.30;;
22939;SDS011;11636;52.086;5.090;2023-06-14T02:28:22;6.22;;;2.80;;
22939;SDS011;11636;52.086;5.090;2023-06-14T02:31:13;4.43;;;2.40;;
22939;SDS011;11636;52.086;5.090;2023-06-14T02:33:59;4.20;;;2.50;;
22939;SDS011;11636;52.086;5.090;2023-06-14T02:36:51;4.32;;;2.28;;
22939;SDS011;11636;52.086;5.090;2023-06-14T02:39:37;4.03;;;2.63;;
22939;SDS011;11636;52.086;5.090;2023-06-14T02:42:30;3.95;;;2.17;;
22939;SDS011;11636;52.086;5.090;2023-06-14T02:45:22;4.55;;;2.55;;
22939;SDS011;11636;52.086;5.090;2023-06-14T02:48:07;3.10;;;2.10;;
22939;SDS011;11636;52.086;5.090;2023-06-14T02:53:52;5.15;;;2.55;;
22939;SDS011;11636;52.086;5.090;2023-06-14T02:56:37;4.30;;;2.53;;
22939;SDS011;11636;52.086;5.090;2023-06-14T02:59:30;3.72;;;2.17;;
22939;SDS011;11636;52.086;5.090;2023-06-14T03:02:22;3.95;;;2.40;;
22939;SDS011;11636;52.086;5.090;2023-06-14T03:05:22;6.90;;;2.65;;
22939;SDS011;11636;52.086;5.090;2023-06-14T03:08:15;4.28;;;2.42;;
22939;SDS011;11636;52.086;5.090;2023-06-14T03:11:12;4.85;;;2.83;;
22939;SDS011;11636;52.086;5.090;2023-06-14T03:14:04;4.33;;;2.50;;
22939;SDS011;11636;52.086;5.090;2023-06-14T03:16:56;4.65;;;2.50;;
22939;SDS011;11636;52.086;5.090;2023-06-14T03:19:41;3.92;;;2.50;;
22939;SDS011;11636;52.086;5.090;2023-06-14T03:22:33;4.15;;;2.40;;
22939;SDS011;11636;52.086;5.090;2023-06-14T03:25:26;4.80;;;2.35;;
22939;SDS011;11636;52.086;5.090;2023-06-14T03:28:21;4.22;;;2.30;;
22939;SDS011;11636;52.086;5.090;2023-06-14T03:31:12;3.95;;;2.35;;
22939;SDS011;11636;52.086;5.090;2023-06-14T03:33:58;5.55;;;2.35;;
22939;SDS011;11636;52.086;5.090;2023-06-14T03:36:51;4.18;;;2.50;;
22939;SDS011;11636;52.086;5.090;2023-06-14T03:39:43;4.63;;;2.50;;
22939;SDS011;11636;52.086;5.090;2023-06-14T03:42:31;3.67;;;2.50;;
22939;SDS011;11636;52.086;5.090;2023-06-14T03:45:24;4.72;;;2.22;;
22939;SDS011;11636;52.086;5.090;2023-06-14T03:48:15;4.10;;;2.42;;
22939;SDS011;11636;52.086;5.090;2023-06-14T03:51:01;4.15;;;2.50;;
22939;SDS011;11636;52.086;5.090;2023-06-14T03:53:59;5.50;;;2.20;;
22939;SDS011;11636;52.086;5.090;2023-06-14T03:57:04;3.92;;;2.58;;
22939;SDS011;11636;52.086;5.090;2023-06-14T04:02:42;3.75;;;2.30;;
22939;SDS011;11636;52.086;5.090;2023-06-14T04:05:35;4.35;;;2.78;;
22939;SDS011;11636;52.086;5.090;2023-06-14T04:08:27;3.70;;;2.40;;
22939;SDS011;11636;52.086;5.090;2023-06-14T04:11:12;3.55;;;2.30;;
22939;SDS011;11636;52.086;5.090;2023-06-14T04:14:04;5.25;;;2.50;;
22939;SDS011;11636;52.086;5.090;2023-06-14T04:16:57;3.97;;;2.55;;
22939;SDS011;11636;52.086;5.090;2023-06-14T04:19:42;5.10;;;2.50;;
22939;SDS011;11636;52.086;5.090;2023-06-14T04:22:35;4.63;;;2.67;;
22939;SDS011;11636;52.086;5.090;2023-06-14T04:25:20;4.53;;;2.33;;
22939;SDS011;11636;52.086;5.090;2023-06-14T04:28:14;4.93;;;2.60;;
22939;SDS011;11636;52.086;5.090;2023-06-14T04:31:00;3.20;;;2.17;;
22939;SDS011;11636;52.086;5.090;2023-06-14T04:36:38;4.85;;;2.58;;
22939;SDS011;11636;52.086;5.090;2023-06-14T04:39:33;5.25;;;2.50;;
22939;SDS011;11636;52.086;5.090;2023-06-14T04:42:25;4.50;;;2.58;;
22939;SDS011;11636;52.086;5.090;2023-06-14T04:45:22;5.18;;;2.47;;
22939;SDS011;11636;52.086;5.090;2023-06-14T04:48:09;5.07;;;2.30;;
22939;SDS011;11636;52.086;5.090;2023-06-14T04:51:02;4.80;;;2.92;;
22939;SDS011;11636;52.086;5.090;2023-06-14T04:53:55;5.60;;;2.80;;
22939;SDS011;11636;52.086;5.090;2023-06-14T04:56:44;5.40;;;2.70;;
22939;SDS011;11636;52.086;5.090;2023-06-14T04:59:38;5.25;;;2.63;;
22939;SDS011;11636;52.086;5.090;2023-06-14T05:02:23;5.13;;;2.40;;
22939;SDS011;11636;52.086;5.090;2023-06-14T05:05:17;5.22;;;2.50;;
22939;SDS011;11636;52.086;5.090;2023-06-14T05:08:11;5.00;;;2.28;;
22939;SDS011;11636;52.086;5.090;2023-06-14T05:11:03;4.50;;;2.33;;
22939;SDS011;11636;52.086;5.090;2023-06-14T05:13:55;6.43;;;2.65;;
22939;SDS011;11636;52.086;5.090;2023-06-14T05:16:43;4.22;;;2.40;;
22939;SDS011;11636;52.086;5.090;2023-06-14T05:19:35;3.83;;;2.20;;
22939;SDS011;11636;52.086;5.090;2023-06-14T05:22:27;3.83;;;2.40;;
22939;SDS011;11636;52.086;5.090;2023-06-14T05:25:12;4.40;;;2.58;;
22939;SDS011;11636;52.086;5.090;2023-06-14T05:28:04;7.93;;;2.60;;
22939;SDS011;11636;52.086;5.090;2023-06-14T05:30:50;3.70;;;2.47;;
22939;SDS011;11636;52.086;5.090;2023-06-14T05:33:43;5.22;;;2.40;;
22939;SDS011;11636;52.086;5.090;2023-06-14T05:36:35;4.60;;;2.47;;
22939;SDS011;11636;52.086;5.090;2023-06-14T05:39:21;3.78;;;2.22;;
22939;SDS011;11636;52.086;5.090;2023-06-14T05:42:15;3.97;;;2.83;;
22939;SDS011;11636;52.086;5.090;2023-06-14T05:45:00;3.67;;;2.30;;
22939;SDS011;11636;52.086;5.090;2023-06-14T05:47:52;4.13;;;2.15;;
22939;SDS011;11636;52.086;5.090;2023-06-14T05:50:46;5.25;;;2.60;;
22939;SDS011;11636;52.086;5.090;2023-06-14T05:53:38;5.90;;;2.88;;
22939;SDS011;11636;52.086;5.090;2023-06-14T05:56:23;4.53;;;2.85;;
22939;SDS011;11636;52.086;5.090;2023-06-14T05:59:15;6.83;;;3.13;;
22939;SDS011;11636;52.086;5.090;2023-06-14T06:02:01;5.75;;;3.03;;
22939;SDS011;11636;52.086;5.090;2023-06-14T06:04:53;4.50;;;2.88;;
22939;SDS011;11636;52.086;5.090;2023-06-14T06:07:39;3.47;;;2.65;;
22939;SDS011;11636;52.086;5.090;2023-06-14T06:10:31;6.18;;;3.10;;
22939;SDS011;11636;52.086;5.090;2023-06-14T06:13:16;4.85;;;2.72;;
22939;SDS011;11636;52.086;5.090;2023-06-14T06:16:08;4.60;;;2.88;;
22939;SDS011;11636;52.086;5.090;2023-06-14T06:18:53;5.30;;;2.55;;
22939;SDS011;11636;52.086;5.090;2023-06-14T06:21:45;4.95;;;2.65;;
22939;SDS011;11636;52.086;5.090;2023-06-14T06:24:30;4.10;;;2.40;;
22939;SDS011;11636;52.086;5.090;2023-06-14T06:27:22;5.22;;;2.50;;
22939;SDS011;11636;52.086;5.090;2023-06-14T06:30:07;4.47;;;2.40;;
22939;SDS011;11636;52.086;5.090;2023-06-14T06:32:59;5.13;;;2.88;;
22939;SDS011;11636;52.086;5.090;2023-06-14T06:35:45;3.50;;;2.30;;
22939;SDS011;11636;52.086;5.090;2023-06-14T06:38:37;4.18;;;2.50;;
22939;SDS011;11636;52.086;5.090;2023-06-14T06:41:23;4.75;;;2.10;;
22939;SDS011;11636;52.086;5.090;2023-06-14T06:47:07;4.03;;;2.10;;
22939;SDS011;11636;52.086;5.090;2023-06-14T06:50:01;4.65;;;2.40;;
22939;SDS011;11636;52.086;5.090;2023-06-14T06:52:53;3.20;;;2.20;;
22939;SDS011;11636;52.086;5.090;2023-06-14T06:55:45;6.47;;;2.40;;
22939;SDS011;11636;52.086;5.090;2023-06-14T06:58:31;4.18;;;2.50;;
22939;SDS011;11636;52.086;5.090;2023-06-14T07:01:23;4.35;;;2.55;;
22939;SDS011;11636;52.086;5.090;2023-06-14T07:04:15;3.55;;;2.28;;
22939;SDS011;11636;52.086;5.090;2023-06-14T07:07:01;3.95;;;2.45;;
22939;SDS011;11636;52.086;5.090;2023-06-14T07:09:53;4.18;;;2.40;;
22939;SDS011;11636;52.086;5.090;2023-06-14T07:12:38;4.75;;;2.28;;
22939;SDS011;11636;52.086;5.090;2023-06-14T07:15:31;5.00;;;2.13;;
22939;SDS011;11636;52.086;5.090;2023-06-14T07:18:17;4.53;;;2.20;;
22939;SDS011;11636;52.086;5.090;2023-06-14T07:21:09;3.50;;;2.30;;
22939;SDS011;11636;52.086;5.090;2023-06-14T07:23:55;5.18;;;2.33;;
22939;SDS011;11636;52.086;5.090;2023-06-14T07:26:47;3.58;;;2.47;;
22939;SDS011;11636;52.086;5.090;2023-06-14T07:29:34;3.17;;;1.90;;
22939;SDS011;11636;52.086;5.090;2023-06-14T07:35:12;4.15;;;2.28;;
22939;SDS011;11636;52.086;5.090;2023-06-14T07:38:04;3.25;;;2.10;;
22939;SDS011;11636;52.086;5.090;2023-06-14T07:40:49;3.88;;;2.45;;
22939;SDS011;11636;52.086;5.090;2023-06-14T07:43:41;2.90;;;1.90;;
22939;SDS011;11636;52.086;5.090;2023-06-14T07:46:33;5.82;;;2.40;;
22939;SDS011;11636;52.086;5.090;2023-06-14T07:49:19;3.30;;;1.90;;
22939;SDS011;11636;52.086;5.090;2023-06-14T07:52:11;2.70;;;1.75;;
22939;SDS011;11636;52.086;5.090;2023-06-14T07:55:04;3.88;;;2.00;;
22939;SDS011;11636;52.086;5.090;2023-06-14T07:57:58;2.80;;;1.80;;
22939;SDS011;11636;52.086;5.090;2023-06-14T08:00:49;2.95;;;1.88;;
22939;SDS011;11636;52.086;5.090;2023-06-14T08:06:27;4.50;;;2.47;;
22939;SDS011;11636;52.086;5.090;2023-06-14T08:09:19;2.90;;;1.92;;
22939;SDS011;11636;52.086;5.090;2023-06-14T08:12:11;3.30;;;2.08;;
22939;SDS011;11636;52.086;5.090;2023-06-14T08:15:03;3.10;;;1.83;;
22939;SDS011;11636;52.086;5.090;2023-06-14T08:17:58;3.13;;;1.80;;
22939;SDS011;11636;52.086;5.090;2023-06-14T08:20:46;2.90;;;1.70;;
22939;SDS011;11636;52.086;5.090;2023-06-14T08:23:38;3.78;;;1.98;;
22939;SDS011;11636;52.086;5.090;2023-06-14T08:26:24;2.60;;;1.70;;
22939;SDS011;11636;52.086;5.090;2023-06-14T08:29:20;3.35;;;2.10;;
22939;SDS011;11636;52.086;5.090;2023-06-14T08:32:06;3.65;;;1.80;;
22939;SDS011;11636;52.086;5.090;2023-06-14T08:34:58;3.30;;;1.70;;
22939;SDS011;11636;52.086;5.090;2023-06-14T08:37:50;3.30;;;1.70;;
22939;SDS011;11636;52.086;5.090;2023-06-14T08:40:36;2.20;;;1.40;;
22939;SDS011;11636;52.086;5.090;2023-06-14T08:43:29;2.90;;;1.65;;
22939;SDS011;11636;52.086;5.090;2023-06-14T08:46:15;3.35;;;1.80;;
22939;SDS011;11636;52.086;5.090;2023-06-14T08:49:13;2.97;;;1.80;;
22939;SDS011;11636;52.086;5.090;2023-06-14T08:52:02;2.95;;;1.80;;
22939;SDS011;11636;52.086;5.090;2023-06-14T08:54:56;3.88;;;1.70;;
22939;SDS011;11636;52.086;5.090;2023-06-14T08:57:51;2.20;;;1.35;;
22939;SDS011;11636;52.086;5.090;2023-06-14T09:00:46;2.72;;;1.70;;
22939;SDS011;11636;52.086;5.090;2023-06-14T09:03:38;3.50;;;1.80;;
22939;SDS011;11636;52.086;5.090;2023-06-14T09:06:26;3.47;;;1.80;;
22939;SDS011;11636;52.086;5.090;2023-06-14T09:09:20;4.28;;;1.80;;
22939;SDS011;11636;52.086;5.090;2023-06-14T09:12:12;2.42;;;1.50;;
22939;SDS011;11636;52.086;5.090;2023-06-14T09:15:06;4.22;;;2.10;;
22939;SDS011;11636;52.086;5.090;2023-06-14T09:17:53;2.90;;;1.80;;
22939;SDS011;11636;52.086;5.090;2023-06-14T09:20:45;3.13;;;1.50;;
22939;SDS011;11636;52.086;5.090;2023-06-14T09:23:42;2.58;;;1.60;;
22939;SDS011;11636;52.086;5.090;2023-06-14T09:26:35;2.80;;;1.75;;
22939;SDS011;11636;52.086;5.090;2023-06-14T09:29:24;3.95;;;1.65;;
22939;SDS011;11636;52.086;5.090;2023-06-14T09:32:17;2.90;;;1.50;;
22939;SDS011;11636;52.086;5.090;2023-06-14T09:35:03;2.70;;;1.20;;
22939;SDS011;11636;52.086;5.090;2023-06-14T09:37:56;2.67;;;1.35;;
22939;SDS011;11636;52.086;5.090;2023-06-14T09:40:42;2.47;;;1.30;;
22939;SDS011;11636;52.086;5.090;2023-06-14T09:43:34;3.45;;;1.40;;
22939;SDS011;11636;52.086;5.090;2023-06-14T09:46:27;2.03;;;1.33;;
22939;SDS011;11636;52.086;5.090;2023-06-14T09:49:14;2.25;;;1.10;;
22939;SDS011;11636;52.086;5.090;2023-06-14T09:52:07;3.75;;;1.38;;
22939;SDS011;11636;52.086;5.090;2023-06-14T09:55:11;3.83;;;1.50;;
22939;SDS011;11636;52.086;5.090;2023-06-14T09:58:05;2.50;;;1.40;;
22939;SDS011;11636;52.086;5.090;2023-06-14T10:00:52;4.43;;;1.60;;
22939;SDS011;11636;52.086;5.090;2023-06-14T10:03:47;5.22;;;1.83;;
22939;SDS011;11636;52.086;5.090;2023-06-14T10:06:42;4.05;;;1.77;;
22939;SDS011;11636;52.086;5.090;2023-06-14T10:09:36;3.15;;;1.50;;
22939;SDS011;11636;52.086;5.090;2023-06-14T10:12:21;2.83;;;1.60;;
22939;SDS011;11636;52.086;5.090;2023-06-14T10:24:15;2.67;;;1.33;;
22939;SDS011;11636;52.086;5.090;2023-06-14T10:27:10;3.38;;;1.30;;
22939;SDS011;11636;52.086;5.090;2023-06-14T10:30:01;3.85;;;1.90;;
22939;SDS011;11636;52.086;5.090;2023-06-14T10:33:04;4.38;;;1.70;;
22939;SDS011;11636;52.086;5.090;2023-06-14T10:39:23;2.90;;;1.40;;
22939;SDS011;11636;52.086;5.090;2023-06-14T10:42:14;2.80;;;1.27;;
22939;SDS011;11636;52.086;5.090;2023-06-14T10:45:07;2.05;;;1.17;;
22939;SDS011;11636;52.086;5.090;2023-06-14T10:47:58;3.00;;;1.50;;
22939;SDS011;11636;52.086;5.090;2023-06-14T10:50:53;2.53;;;1.35;;
22939;SDS011;11636;52.086;5.090;2023-06-14T10:53:50;2.65;;;1.50;;
22939;SDS011;11636;52.086;5.090;2023-06-14T10:56:46;2.20;;;1.25;;
22939;SDS011;11636;52.086;5.090;2023-06-14T10:59:39;2.38;;;1.45;;
22939;SDS011;11636;52.086;5.090;2023-06-14T11:05:52;2.47;;;1.45;;
22939;SDS011;11636;52.086;5.090;2023-06-14T11:12:05;2.20;;;1.20;;
22939;SDS011;11636;52.086;5.090;2023-06-14T11:14:55;2.83;;;1.40;;
22939;SDS011;11636;52.086;5.090;2023-06-14T11:17:52;3.88;;;1.42;;
22939;SDS011;11636;52.086;5.090;2023-06-14T11:20:46;3.50;;;1.30;;
22939;SDS011;11636;52.086;5.090;2023-06-14T11:23:39;3.97;;;1.30;;
22939;SDS011;11636;52.086;5.090;2023-06-14T11:26:28;3.63;;;1.10;;
22939;SDS011;11636;52.086;5.090;2023-06-14T11:29:22;2.88;;;1.13;;
22939;SDS011;11636;52.086;5.090;2023-06-14T11:32:07;3.10;;;1.30;;
22939;SDS011;11636;52.086;5.090;2023-06-14T11:35:04;3.53;;;1.70;;
22939;SDS011;11636;52.086;5.090;2023-06-14T11:37:57;3.88;;;2.00;;
22939;SDS011;11636;52.086;5.090;2023-06-14T11:40:48;3.88;;;1.70;;
22939;SDS011;11636;52.086;5.090;2023-06-14T11:43:34;4.25;;;1.70;;
22939;SDS011;11636;52.086;5.090;2023-06-14T11:46:26;4.07;;;1.63;;
22939;SDS011;11636;52.086;5.090;2023-06-14T11:49:12;2.78;;;1.40;;
22939;SDS011;11636;52.086;5.090;2023-06-14T11:52:04;3.15;;;1.58;;
22939;SDS011;11636;52.086;5.090;2023-06-14T11:54:50;2.42;;;1.35;;
22939;SDS011;11636;52.086;5.090;2023-06-14T11:57:43;2.78;;;1.48;;
22939;SDS011;11636;52.086;5.090;2023-06-14T12:03:24;2.38;;;1.20;;
22939;SDS011;11636;52.086;5.090;2023-06-14T12:06:24;2.15;;;1.08;;
22939;SDS011;11636;52.086;5.090;2023-06-14T12:09:23;2.50;;;1.25;;
22939;SDS011;11636;52.086;5.090;2023-06-14T12:12:12;2.88;;;1.80;;
22939;SDS011;11636;52.086;5.090;2023-06-14T12:15:04;3.83;;;1.50;;
22939;SDS011;11636;52.086;5.090;2023-06-14T12:17:59;2.60;;;1.30;;
22939;SDS011;11636;52.086;5.090;2023-06-14T12:20:51;2.75;;;1.50;;
22939;SDS011;11636;52.086;5.090;2023-06-14T12:26:37;3.35;;;1.40;;
22939;SDS011;11636;52.086;5.090;2023-06-14T12:29:32;2.33;;;1.20;;
22939;SDS011;11636;52.086;5.090;2023-06-14T12:32:17;5.95;;;1.77;;
22939;SDS011;11636;52.086;5.090;2023-06-14T12:35:10;2.65;;;1.30;;
22939;SDS011;11636;52.086;5.090;2023-06-14T12:37:55;3.90;;;1.55;;
22939;SDS011;11636;52.086;5.090;2023-06-14T12:40:48;3.70;;;1.30;;
22939;SDS011;11636;52.086;5.090;2023-06-14T12:43:34;2.75;;;1.38;;
22939;SDS011;11636;52.086;5.090;2023-06-14T12:46:25;2.35;;;1.33;;
22939;SDS011;11636;52.086;5.090;2023-06-14T12:49:11;2.47;;;1.40;;
22939;SDS011;11636;52.086;5.090;2023-06-14T12:52:04;2.28;;;1.00;;
22939;SDS011;11636;52.086;5.090;2023-06-14T12:54:49;2.20;;;1.08;;
22939;SDS011;11636;52.086;5.090;2023-06-14T12:57:41;2.25;;;1.10;;
22939;SDS011;11636;52.086;5.090;2023-06-14T13:00:35;2.78;;;1.50;;
22939;SDS011;11636;52.086;5.090;2023-06-14T13:03:26;2.10;;;1.20;;
22939;SDS011;11636;52.086;5.090;2023-06-14T13:06:22;3.60;;;1.27;;
22939;SDS011;11636;52.086;5.090;2023-06-14T13:09:07;2.17;;;1.23;;
22939;SDS011;11636;52.086;5.090;2023-06-14T13:12:00;1.90;;;0.98;;
22939;SDS011;11636;52.086;5.090;2023-06-14T13:14:46;1.98;;;1.00;;
22939;SDS011;11636;52.086;5.090;2023-06-14T13:20:30;2.28;;;1.15;;
22939;SDS011;11636;52.086;5.090;2023-06-14T13:23:16;3.25;;;1.20;;
22939;SDS011;11636;52.086;5.090;2023-06-14T13:26:09;2.80;;;1.30;;
22939;SDS011;11636;52.086;5.090;2023-06-14T13:28:54;1.85;;;1.00;;
22939;SDS011;11636;52.086;5.090;2023-06-14T13:31:47;2.92;;;1.60;;
22939;SDS011;11636;52.086;5.090;2023-06-14T13:34:32;2.92;;;1.30;;
22939;SDS011;11636;52.086;5.090;2023-06-14T13:37:25;3.65;;;1.70;;
22939;SDS011;11636;52.086;5.090;2023-06-14T13:40:17;3.35;;;1.33;;
22939;SDS011;11636;52.086;5.090;2023-06-14T13:43:03;3.17;;;1.60;;
22939;SDS011;11636;52.086;5.090;2023-06-14T13:45:56;5.93;;;1.52;;
22939;SDS011;11636;52.086;5.090;2023-06-14T13:48:42;3.00;;;1.30;;
22939;SDS011;11636;52.086;5.090;2023-06-14T13:51:34;2.30;;;1.10;;
22939;SDS011;11636;52.086;5.090;2023-06-14T13:54:20;3.00;;;1.60;;
22939;SDS011;11636;52.086;5.090;2023-06-14T13:57:14;3.13;;;1.20;;
22939;SDS011;11636;52.086;5.090;2023-06-14T13:59:59;3.88;;;1.10;;
22939;SDS011;11636;52.086;5.090;2023-06-14T14:02:52;3.35;;;1.10;;
22939;SDS011;11636;52.086;5.090;2023-06-14T14:05:46;1.77;;;0.95;;
22939;SDS011;11636;52.086;5.090;2023-06-14T14:08:38;2.15;;;1.00;;
22939;SDS011;11636;52.086;5.090;2023-06-14T14:11:31;1.95;;;1.00;;
22939;SDS011;11636;52.086;5.090;2023-06-14T14:14:18;3.00;;;1.08;;
22939;SDS011;11636;52.086;5.090;2023-06-14T14:17:09;2.13;;;0.90;;
22939;SDS011;11636;52.086;5.090;2023-06-14T14:20:02;3.05;;;1.20;;
22939;SDS011;11636;52.086;5.090;2023-06-14T14:22:55;2.58;;;1.17;;
22939;SDS011;11636;52.086;5.090;2023-06-14T14:25:40;1.77;;;0.82;;
22939;SDS011;11636;52.086;5.090;2023-06-14T14:28:32;2.65;;;1.00;;
22939;SDS011;11636;52.086;5.090;2023-06-14T14:31:18;2.42;;;0.90;;
22939;SDS011;11636;52.086;5.090;2023-06-14T14:34:11;3.10;;;1.20;;
22939;SDS011;11636;52.086;5.090;2023-06-14T14:36:57;2.10;;;1.13;;
22939;SDS011;11636;52.086;5.090;2023-06-14T14:39:49;2.75;;;1.20;;
22939;SDS011;11636;52.086;5.090;2023-06-14T14:42:35;1.88;;;0.93;;
22939;SDS011;11636;52.086;5.090;2023-06-14T14:45:28;2.30;;;1.35;;
22939;SDS011;11636;52.086;5.090;2023-06-14T14:48:13;3.60;;;1.58;;
22939;SDS011;11636;52.086;5.090;2023-06-14T14:51:06;2.78;;;1.17;;
22939;SDS011;11636;52.086;5.090;2023-06-14T14:53:58;4.10;;;1.40;;
22939;SDS011;11636;52.086;5.090;2023-06-14T14:56:43;2.35;;;1.30;;
22939;SDS011;11636;52.086;5.090;2023-06-14T14:59:36;3.22;;;1.55;;
22939;SDS011;11636;52.086;5.090;2023-06-14T15:02:28;2.03;;;1.20;;
22939;SDS011;11636;52.086;5.090;2023-06-14T15:13:49;2.97;;;1.40;;
22939;SDS011;11636;52.086;5.090;2023-06-14T15:16:42;2.70;;;1.40;;
22939;SDS011;11636;52.086;5.090;2023-06-14T15:19:41;2.67;;;1.50;;
22939;SDS011;11636;52.086;5.090;2023-06-14T15:22:27;3.35;;;1.23;;
22939;SDS011;11636;52.086;5.090;2023-06-14T15:25:19;2.00;;;1.00;;
22939;SDS011;11636;52.086;5.090;2023-06-14T15:28:05;2.08;;;0.95;;
22939;SDS011;11636;52.086;5.090;2023-06-14T15:30:58;2.25;;;1.00;;
22939;SDS011;11636;52.086;5.090;2023-06-14T15:33:45;2.92;;;0.90;;
22939;SDS011;11636;52.086;5.090;2023-06-14T15:39:22;2.80;;;1.10;;
22939;SDS011;11636;52.086;5.090;2023-06-14T15:42:15;1.92;;;1.00;;
22939;SDS011;11636;52.086;5.090;2023-06-14T15:48:07;2.38;;;1.10;;
22939;SDS011;11636;52.086;5.090;2023-06-14T15:50:53;3.13;;;1.20;;
22939;SDS011;11636;52.086;5.090;2023-06-14T15:54:05;2.67;;;1.00;;
22939;SDS011;11636;52.086;5.090;2023-06-14T15:57:10;2.80;;;1.00;;
22939;SDS011;11636;52.086;5.090;2023-06-14T15:59:56;1.48;;;0.77;;
22939;SDS011;11636;52.086;5.090;2023-06-14T16:02:49;1.90;;;0.70;;
22939;SDS011;11636;52.086;5.090;2023-06-14T16:05:35;2.88;;;1.00;;
22939;SDS011;11636;52.086;5.090;2023-06-14T16:08:27;1.70;;;0.80;;
22939;SDS011;11636;52.086;5.090;2023-06-14T16:11:25;1.63;;;0.88;;
22939;SDS011;11636;52.086;5.090;2023-06-14T16:14:17;3.40;;;0.90;;
22939;SDS011;11636;52.086;5.090;2023-06-14T16:17:09;1.50;;;0.60;;
22939;SDS011;11636;52.086;5.090;2023-06-14T16:19:55;1.33;;;0.70;;
22939;SDS011;11636;52.086;5.090;2023-06-14T16:22:47;1.95;;;0.80;;
22939;SDS011;11636;52.086;5.090;2023-06-14T16:25:39;3.40;;;1.00;;
22939;SDS011;11636;52.086;5.090;2023-06-14T16:28:31;2.08;;;0.90;;
22939;SDS011;11636;52.086;5.090;2023-06-14T16:31:17;2.20;;;1.02;;
22939;SDS011;11636;52.086;5.090;2023-06-14T16:34:10;2.17;;;1.00;;
22939;SDS011;11636;52.086;5.090;2023-06-14T16:36:56;1.58;;;0.80;;
22939;SDS011;11636;52.086;5.090;2023-06-14T16:39:49;2.00;;;0.90;;
22939;SDS011;11636;52.086;5.090;2023-06-14T16:42:41;1.75;;;0.95;;
22939;SDS011;11636;52.086;5.090;2023-06-14T16:45:26;5.90;;;1.10;;
22939;SDS011;11636;52.086;5.090;2023-06-14T16:48:19;2.08;;;0.80;;
22939;SDS011;11636;52.086;5.090;2023-06-14T16:51:04;2.05;;;0.93;;
22939;SDS011;11636;52.086;5.090;2023-06-14T16:53:57;1.67;;;0.90;;
22939;SDS011;11636;52.086;5.090;2023-06-14T16:56:43;1.50;;;0.73;;
22939;SDS011;11636;52.086;5.090;2023-06-14T16:59:36;1.95;;;0.70;;
22939;SDS011;11636;52.086;5.090;2023-06-14T17:02:28;2.22;;;0.90;;
22939;SDS011;11636;52.086;5.090;2023-06-14T17:05:21;2.30;;;0.90;;
22939;SDS011;11636;52.086;5.090;2023-06-14T17:08:07;2.05;;;1.02;;
22939;SDS011;11636;52.086;5.090;2023-06-14T17:10:59;3.17;;;1.20;;
22939;SDS011;11636;52.086;5.090;2023-06-14T17:13:44;1.70;;;0.80;;
22939;SDS011;11636;52.086;5.090;2023-06-14T17:16:36;2.33;;;1.10;;
22939;SDS011;11636;52.086;5.090;2023-06-14T17:19:28;1.85;;;0.90;;
22939;SDS011;11636;52.086;5.090;2023-06-14T17:22:20;1.80;;;0.90;;
22939;SDS011;11636;52.086;5.090;2023-06-14T17:25:06;3.28;;;1.10;;
22939;SDS011;11636;52.086;5.090;2023-06-14T17:27:58;2.72;;;1.27;;
22939;SDS011;11636;52.086;5.090;2023-06-14T17:33:42;1.98;;;1.05;;
22939;SDS011;11636;52.086;5.090;2023-06-14T17:36:28;3.20;;;1.23;;
22939;SDS011;11636;52.086;5.090;2023-06-14T17:39:20;2.03;;;1.33;;
22939;SDS011;11636;52.086;5.090;2023-06-14T17:42:05;3.10;;;1.50;;
22939;SDS011;11636;52.086;5.090;2023-06-14T17:44:58;2.90;;;1.27;;
22939;SDS011;11636;52.086;5.090;2023-06-14T17:50:42;2.63;;;1.42;;
22939;SDS011;11636;52.086;5.090;2023-06-14T17:53:28;2.50;;;1.20;;
22939;SDS011;11636;52.086;5.090;2023-06-14T17:56:20;2.75;;;1.30;;
22939;SDS011;11636;52.086;5.090;2023-06-14T18:02:04;2.95;;;1.30;;
22939;SDS011;11636;52.086;5.090;2023-06-14T18:04:51;2.95;;;1.73;;
22939;SDS011;11636;52.086;5.090;2023-06-14T18:07:46;2.65;;;1.77;;
22939;SDS011;11636;52.086;5.090;2023-06-14T18:10:40;3.03;;;2.05;;
22939;SDS011;11636;52.086;5.090;2023-06-14T18:13:26;4.53;;;2.28;;
22939;SDS011;11636;52.086;5.090;2023-06-14T18:16:18;8.63;;;6.65;;
22939;SDS011;11636;52.086;5.090;2023-06-14T18:19:11;8.88;;;5.78;;
22939;SDS011;11636;52.086;5.090;2023-06-14T18:22:04;6.10;;;4.60;;